Time;durP1;ratioP1;P1;durP2;ratioP2;P2;SDS_P1;SDS_P2;PMS_P1;PMS_P2;Temp;Humidity;BMP_temperature;BMP_pressure;BME280_temperature;BME280_humidity;BME280_pressure;Samples;Min_cycle;Max_cycle;Signal;HPM_P1;HPM_P2
2021/03/27 00:00:41;;;;;;;9.80;3.33;;;;;;;2.61;100.00;100323.42;1664172;84;21097;-72
2021/03/27 00:03:35;;;;;;;10.30;3.87;;;;;;;2.59;100.00;100316.01;1664047;84;21002;-72
2021/03/27 00:06:24;;;;;;;5.47;3.63;;;;;;;2.59;100.00;100316.50;1664356;84;21033;-73
2021/03/27 00:09:14;;;;;;;4.87;2.80;;;;;;;2.62;100.00;100316.25;1845178;76;26846;-72
2021/03/27 00:12:17;;;;;;;5.10;3.70;;;;;;;2.58;100.00;100320.97;1815592;79;20973;-73
2021/03/27 00:14:53;;;;;;;;;;;;;;;2.55;100.00;100320.34;1818202;79;20976;-73
2021/03/27 00:17:41;;;;;;;7.37;3.10;;;;;;;2.55;100.00;100324.34;1728859;80;20598;-72
2021/03/27 00:20:41;;;;;;;3.77;2.30;;;;;;;2.53;100.00;100323.12;1727705;82;21044;-73
2021/03/27 00:23:40;;;;;;;4.73;2.17;;;;;;;2.52;100.00;100329.94;1696801;84;21021;-73
2021/03/27 00:26:28;;;;;;;3.20;2.63;;;;;;;2.50;100.00;100330.04;1726874;83;21059;-72
2021/03/27 00:29:05;;;;;;;8.20;4.97;;;;;;;2.49;100.00;100316.80;1696707;84;21213;-73
2021/03/27 00:31:50;;;;;;;7.23;2.03;;;;;;;2.46;100.00;100324.53;1726856;83;21016;-73
2021/03/27 00:34:22;;;;;;;5.23;2.70;;;;;;;2.43;100.00;100324.29;1696933;84;20966;-72
2021/03/27 00:36:55;;;;;;;4.90;3.37;;;;;;;2.41;100.00;100328.89;1726942;83;21111;-72
2021/03/27 00:39:43;;;;;;;2.57;2.27;;;;;;;2.41;100.00;100324.89;1696731;84;21081;-72
2021/03/27 00:42:31;;;;;;;3.00;2.43;;;;;;;2.40;100.00;100323.17;1726948;83;21421;-72
2021/03/27 00:45:14;;;;;;;5.53;2.63;;;;;;;2.41;100.00;100322.70;1845587;76;26722;-74
2021/03/27 00:47:51;;;;;;;6.20;3.53;;;;;;;2.36;100.00;100328.86;1815418;78;21008;-73
2021/03/27 00:50:50;;;;;;;8.40;3.53;;;;;;;2.36;100.00;100323.52;1845435;76;26699;-73
2021/03/27 00:53:30;;;;;;;3.97;2.07;;;;;;;2.30;100.00;100327.46;1815636;78;20996;-73
2021/03/27 00:56:27;;;;;;;4.20;2.87;;;;;;;2.28;100.00;100324.94;1742485;81;21387;-73
2021/03/27 00:59:08;;;;;;;5.73;3.40;;;;;;;2.26;100.00;100326.83;1754314;81;21573;-72
2021/03/27 01:01:42;;;;;;;5.28;2.40;;;;;;;2.23;100.00;100330.20;1699710;84;21129;-73
2021/03/27 01:04:27;;;;;;;6.87;3.30;;;;;;;2.23;100.00;100323.53;1779303;79;27121;-73
2021/03/27 01:07:14;;;;;;;4.27;2.80;;;;;;;2.16;100.00;100327.61;1747997;81;20977;-73
2021/03/27 01:10:09;;;;;;;3.77;2.50;;;;;;;2.14;100.00;100331.72;1751804;82;21389;-73
2021/03/27 01:12:50;;;;;;;13.10;3.10;;;;;;;2.14;100.00;100329.54;1716080;82;21503;-73
2021/03/27 01:15:36;;;;;;;6.40;3.63;;;;;;;2.13;100.00;100327.36;1716152;83;21001;-73
2021/03/27 01:18:16;;;;;;;7.57;2.53;;;;;;;2.17;100.00;100322.66;1845561;76;27099;-72
2021/03/27 01:21:02;;;;;;;7.40;4.53;;;;;;;2.18;100.00;100324.34;1903095;75;26819;-73
2021/03/27 01:23:30;;;;;;;5.70;2.90;;;;;;;2.16;100.00;100328.94;1791193;80;20934;-73
2021/03/27 01:26:09;;;;;;;2.03;1.90;;;;;;;2.18;100.00;100336.34;1823671;78;21200;-72
2021/03/27 01:28:51;;;;;;;5.80;3.45;;;;;;;2.18;100.00;100330.55;1791420;79;21475;-73
2021/03/27 01:31:40;;;;;;;4.80;2.87;;;;;;;2.21;100.00;100332.13;1823488;78;20977;-74
2021/03/27 01:34:45;;;;;;;3.23;2.90;;;;;;;2.21;100.00;100333.02;1791029;79;20993;-72
2021/03/27 01:37:37;;;;;;;3.77;3.07;;;;;;;2.23;100.00;100333.75;1823228;78;20902;-73
2021/03/27 01:40:26;;;;;;;8.73;3.40;;;;;;;2.25;100.00;100333.15;1784717;79;21391;-73
2021/03/27 01:43:37;;;;;;;4.73;3.20;;;;;;;2.30;100.00;100330.62;1823333;78;20953;-73
2021/03/27 01:46:28;;;;;;;5.80;3.03;;;;;;;2.32;100.00;100335.36;1816587;78;21022;-72
2021/03/27 01:49:11;;;;;;;3.03;2.70;;;;;;;2.35;100.00;100341.33;1796695;78;20987;-71
2021/03/27 01:52:04;;;;;;;2.63;2.30;;;;;;;2.37;100.00;100347.41;1796527;79;21003;-73
2021/03/27 01:55:27;;;;;;;3.33;2.53;;;;;;;2.39;100.00;100344.17;1796750;78;21362;-73
2021/03/27 01:58:16;;;;;;;4.50;2.77;;;;;;;2.42;100.00;100340.41;1796858;79;21034;-72
2021/03/27 02:01:05;;;;;;;4.00;3.47;;;;;;;2.43;100.00;100346.13;1796720;79;21050;-73
2021/03/27 02:03:41;;;;;;;3.53;2.27;;;;;;;2.43;100.00;100344.30;1717185;82;21016;-73
2021/03/27 02:06:42;;;;;;;4.33;2.30;;;;;;;2.47;100.00;100339.59;1845307;76;26756;-72
2021/03/27 02:09:16;;;;;;;5.30;3.03;;;;;;;2.46;100.00;100345.89;1815593;79;20933;-73
2021/03/27 02:12:03;;;;;;;;;;;;;;;2.47;100.00;100346.27;1788254;79;22271;-72
2021/03/27 02:14:55;;;;;;;7.43;3.10;;;;;;;2.48;100.00;100350.66;1815536;79;20167;-73
2021/03/27 02:17:46;;;;;;;2.12;1.85;;;;;;;2.51;100.00;100357.58;1728607;80;21088;-72
2021/03/27 02:20:50;;;;;;;4.50;2.70;;;;;;;2.53;100.00;100352.48;1726971;82;21024;-72
2021/03/27 02:23:57;;;;;;;4.37;2.60;;;;;;;2.56;100.00;100350.94;1725974;83;20984;-73
2021/03/27 02:26:56;;;;;;;4.03;2.97;;;;;;;2.59;100.00;100352.05;1726588;83;21473;-73
2021/03/27 02:29:47;;;;;;;4.47;3.10;;;;;;;2.59;100.00;100353.38;1726883;83;20977;-72
2021/03/27 02:32:46;;;;;;;3.37;2.20;;;;;;;2.60;100.00;100347.09;1726879;81;21028;-73
2021/03/27 02:35:38;;;;;;;6.37;2.40;;;;;;;2.63;100.00;100348.18;1728342;81;20989;-72
2021/03/27 02:38:53;;;;;;;5.30;2.70;;;;;;;2.69;100.00;100348.70;1852193;77;26754;-72
2021/03/27 02:41:55;;;;;;;3.50;2.50;;;;;;;2.65;100.00;100349.41;1824784;78;21032;-72
2021/03/27 02:44:38;;;;;;;9.00;2.87;;;;;;;2.63;100.00;100353.52;1771752;81;21205;-74
2021/03/27 02:47:30;;;;;;;4.45;2.65;;;;;;;2.62;100.00;100349.63;1801908;79;21028;-72
2021/03/27 02:50:07;;;;;;;2.73;2.50;;;;;;;2.61;100.00;100353.28;1790371;80;20980;-71
2021/03/27 02:52:56;;;;;;;8.47;2.97;;;;;;;2.61;100.00;100352.78;1783863;80;20984;-73
2021/03/27 02:55:34;;;;;;;2.83;2.63;;;;;;;2.60;100.00;100355.11;1790230;80;21047;-72
2021/03/27 02:58:22;;;;;;;4.70;2.37;;;;;;;2.62;100.00;100358.97;1790423;80;21204;-73
2021/03/27 03:01:09;;;;;;;2.83;2.17;;;;;;;2.59;100.00;100354.72;1790204;80;20980;-72
2021/03/27 03:03:57;;;;;;;4.37;3.13;;;;;;;2.57;100.00;100355.32;1790280;79;20984;-73
2021/03/27 03:06:52;;;;;;;5.03;4.03;;;;;;;2.58;100.00;100359.67;1852011;76;26728;-73
2021/03/27 03:09:32;;;;;;;5.43;4.40;;;;;;;2.54;100.00;100363.55;1776256;80;21073;-72
2021/03/27 03:12:39;;;;;;;7.00;4.97;;;;;;;2.53;100.00;100355.15;1776354;80;22120;-72
2021/03/27 03:15:20;;;;;;;9.13;5.60;;;;;;;2.52;100.00;100357.96;1776244;80;20962;-72
2021/03/27 03:18:35;;;;;;;16.97;10.27;;;;;;;2.48;100.00;100361.34;1760585;80;21032;-72
2021/03/27 03:21:18;;;;;;;4.67;3.70;;;;;;;2.47;100.00;100360.95;1833371;76;26562;-72
2021/03/27 03:24:01;;;;;;;2.57;2.37;;;;;;;2.42;100.00;100365.77;1796851;79;21031;-73
2021/03/27 03:27:00;;;;;;;7.57;2.97;;;;;;;2.39;100.00;100369.52;1793454;79;21353;-73
2021/03/27 03:29:39;;;;;;;2.73;1.63;;;;;;;2.39;100.00;100376.66;1797277;79;20996;-73
2021/03/27 03:32:43;;;;;;;6.27;2.90;;;;;;;2.40;100.00;100371.21;1811746;78;20970;-72
2021/03/27 03:35:37;;;;;;;9.35;3.70;;;;;;;2.42;100.00;100376.44;1825755;78;21089;-73
2021/03/27 03:38:19;;;;;;;2.08;1.55;;;;;;;2.41;100.00;100374.75;1825895;78;20982;-71
2021/03/27 03:41:25;;;;;;;4.60;2.95;;;;;;;2.42;100.00;100381.78;1825829;78;21385;-73
2021/03/27 03:44:04;;;;;;;2.60;2.07;;;;;;;2.40;100.00;100383.22;1789001;80;21021;-73
2021/03/27 03:46:43;;;;;;;5.17;2.90;;;;;;;2.40;100.00;100389.05;1771546;80;20896;-73
2021/03/27 03:49:34;;;;;;;6.97;3.03;;;;;;;2.41;100.00;100390.28;1759922;81;21556;-72
2021/03/27 03:52:07;;;;;;;5.17;3.07;;;;;;;2.43;100.00;100395.02;1759968;81;21216;-73
2021/03/27 03:54:47;;;;;;;6.30;2.67;;;;;;;2.43;100.00;100393.69;1757040;81;21513;-73
2021/03/27 03:57:36;;;;;;;4.70;3.13;;;;;;;2.45;100.00;100401.59;1759676;80;21127;-72
2021/03/27 04:00:29;;;;;;;5.67;3.43;;;;;;;2.46;100.00;100398.81;1753493;81;21030;-72
2021/03/27 04:03:12;;;;;;;5.10;3.65;;;;;;;2.49;100.00;100405.73;1759879;80;21145;-74
2021/03/27 04:05:50;;;;;;;10.48;5.67;;;;;;;2.53;100.00;100407.20;1758691;81;21110;-71
2021/03/27 04:08:40;;;;;;;3.53;2.70;;;;;;;2.59;100.00;100401.44;1845581;76;26571;-73
2021/03/27 04:11:29;;;;;;;6.80;3.30;;;;;;;2.60;100.00;100415.64;1815677;78;20980;-73
2021/03/27 04:13:58;;;;;;;2.03;1.93;;;;;;;2.62;100.00;100407.03;1815539;77;21055;-73
2021/03/27 04:16:27;;;;;;;7.73;3.50;;;;;;;2.67;100.00;100410.22;1784521;79;20941;-72
2021/03/27 04:19:18;;;;;;;3.40;3.03;;;;;;;2.70;100.00;100411.83;1783722;79;20881;-71
2021/03/27 04:22:22;;;;;;;10.63;3.77;;;;;;;2.73;100.00;100408.95;1811309;79;21415;-72
2021/03/27 04:25:26;;;;;;;7.37;2.80;;;;;;;2.77;100.00;100411.27;1815476;79;21007;-74
2021/03/27 04:28:16;;;;;;;3.90;2.50;;;;;;;2.80;100.00;100408.88;1811274;79;21275;-72
2021/03/27 04:31:25;;;;;;;2.57;1.67;;;;;;;2.83;100.00;100410.83;1815541;79;21020;-72
2021/03/27 04:33:59;;;;;;;6.93;3.40;;;;;;;2.87;100.00;100412.80;1815686;78;20913;-73
2021/03/27 04:37:02;;;;;;;9.37;5.90;;;;;;;2.89;100.00;100417.54;1815557;79;21023;-72
2021/03/27 04:39:41;;;;;;;3.20;2.70;;;;;;;2.92;100.00;100423.13;1815649;79;21016;-73
2021/03/27 04:42:18;;;;;;;4.10;2.50;;;;;;;2.96;100.00;100418.80;1813812;79;21187;-73
2021/03/27 04:44:54;;;;;;;8.77;3.73;;;;;;;3.02;100.00;100423.67;1815550;79;20996;-72
2021/03/27 04:47:39;;;;;;;3.77;2.73;;;;;;;3.10;100.00;100431.14;1811128;79;20980;-72
2021/03/27 04:50:53;;;;;;;3.77;2.23;;;;;;;3.17;100.00;100428.38;1815750;79;21644;-72
2021/03/27 04:53:29;;;;;;;8.40;3.90;;;;;;;3.25;100.00;100434.48;1815761;79;20917;-73
2021/03/27 04:56:26;;;;;;;4.47;3.30;;;;;;;3.38;100.00;100441.09;1815710;79;21188;-72
2021/03/27 04:59:18;;;;;;;6.10;3.07;;;;;;;3.47;100.00;100442.22;1811940;79;21012;-71
2021/03/27 05:02:17;;;;;;;5.20;3.57;;;;;;;3.53;100.00;100442.62;1815772;79;20889;-73
2021/03/27 05:05:02;;;;;;;5.73;4.13;;;;;;;3.59;100.00;100442.62;1815721;79;20921;-72
2021/03/27 05:07:48;;;;;;;6.03;3.57;;;;;;;3.63;100.00;100437.91;1815654;77;21003;-72
2021/03/27 05:10:43;;;;;;;9.93;3.80;;;;;;;3.67;100.00;100448.27;1815781;79;21201;-73
2021/03/27 05:13:37;;;;;;;5.17;4.03;;;;;;;3.69;100.00;100444.98;1815801;79;20940;-73
2021/03/27 05:16:24;;;;;;;2.67;2.43;;;;;;;3.72;100.00;100439.41;1815750;79;21067;-72
2021/03/27 05:19:16;;;;;;;4.80;3.77;;;;;;;3.75;100.00;100446.33;1815296;78;21578;-72
2021/03/27 05:21:57;;;;;;;2.50;2.30;;;;;;;3.78;100.00;100445.61;1787008;78;21045;-73
2021/03/27 05:24:40;;;;;;;2.40;2.23;;;;;;;3.82;100.00;100439.53;1735520;82;21381;-76
2021/03/27 05:27:42;;;;;;;2.93;2.30;;;;;;;3.86;100.00;100452.19;1740500;82;21064;-75
2021/03/27 05:30:22;;;;;;;4.07;3.50;;;;;;;3.91;100.00;100444.20;1740740;82;20973;-73
2021/03/27 05:33:27;;;;;;;3.27;2.63;;;;;;;4.01;100.00;100445.67;1681453;85;21647;-72
2021/03/27 05:36:16;;;;;;;6.13;2.93;;;;;;;4.07;100.00;100454.58;1713023;83;20967;-72
2021/03/27 05:38:58;;;;;;;7.07;3.37;;;;;;;4.17;100.00;100462.72;1713048;83;21408;-72
2021/03/27 05:41:46;;;;;;;3.73;3.27;;;;;;;4.27;100.00;100448.15;1711684;83;20995;-74
2021/03/27 05:44:51;;;;;;;6.87;3.33;;;;;;;4.34;100.00;100450.22;1710722;83;20983;-73
2021/03/27 05:47:49;;;;;;;5.77;3.10;;;;;;;4.39;100.00;100452.51;1723838;82;21657;-73
2021/03/27 05:50:42;;;;;;;5.53;2.87;;;;;;;4.44;100.00;100457.02;1731325;79;21100;-73
2021/03/27 05:53:43;;;;;;;6.47;3.47;;;;;;;4.48;100.00;100462.98;1728258;82;21282;-72
2021/03/27 05:56:28;;;;;;;4.30;3.43;;;;;;;4.53;100.00;100464.81;1731391;82;21622;-73
2021/03/27 05:59:42;;;;;;;3.43;2.80;;;;;;;4.52;100.00;100460.45;1731605;82;20992;-73
2021/03/27 06:02:44;;;;;;;5.97;2.90;;;;;;;4.51;100.00;100466.27;1731531;82;21187;-73
2021/03/27 06:05:39;;;;;;;6.80;3.27;;;;;;;4.54;100.00;100471.39;1731536;82;20962;-73
2021/03/27 06:08:41;;;;;;;7.63;3.50;;;;;;;4.54;100.00;100478.08;1728831;82;21084;-73
2021/03/27 06:11:30;;;;;;;5.27;3.07;;;;;;;4.49;100.00;100470.89;1731428;82;21033;-73
2021/03/27 06:14:16;;;;;;;7.60;3.47;;;;;;;4.47;100.00;100473.34;1731526;82;21104;-74
2021/03/27 06:16:58;;;;;;;7.30;3.90;;;;;;;4.44;100.00;100473.08;1730511;82;21049;-74
2021/03/27 06:19:44;;;;;;;6.47;3.60;;;;;;;4.41;100.00;100478.70;1728667;82;20970;-72
2021/03/27 06:22:58;;;;;;;5.23;3.13;;;;;;;4.39;100.00;100477.94;1715371;83;21222;-73
2021/03/27 06:25:56;;;;;;;;;;;;;;;4.37;100.00;100478.09;1717287;83;21083;-75
2021/03/27 06:29:12;;;;;;;4.30;2.13;;;;;;;4.38;100.00;100487.81;1713187;83;20422;-74
2021/03/27 06:32:36;;;;;;;10.20;4.03;;;;;;;4.40;100.00;100483.68;1740595;82;21028;-74
2021/03/27 06:35:30;;;;;;;6.83;3.47;;;;;;;4.42;100.00;100484.91;1757885;81;21502;-74
2021/03/27 06:38:42;;;;;;;6.37;3.97;;;;;;;4.43;100.00;100489.30;1770066;80;21812;-76
2021/03/27 06:41:51;;;;;;;4.87;3.60;;;;;;;4.43;100.00;100496.84;1764117;81;21226;-74
2021/03/27 06:44:52;;;;;;;8.50;4.53;;;;;;;4.44;100.00;100499.86;1756827;81;21207;-75
2021/03/27 06:47:48;;;;;;;7.50;4.00;;;;;;;4.42;100.00;100497.80;1676867;84;21119;-77
2021/03/27 06:50:43;;;;;;;15.20;6.10;;;;;;;4.38;100.00;100499.86;1718711;82;21081;-76
2021/03/27 06:53:19;;;;;;;;;;;;;;;4.35;100.00;100500.59;1692611;83;22256;-75
2021/03/27 06:56:08;;;;;;;29.17;14.63;;;;;;;4.35;100.00;100501.92;1678942;83;20259;-78
2021/03/27 06:58:58;;;;;;;41.97;20.27;;;;;;;4.42;100.00;100498.29;1827915;76;26537;-78
2021/03/27 07:01:41;;;;;;;30.75;15.55;;;;;;;4.43;100.00;100509.38;1825840;77;20970;-78
2021/03/27 07:04:52;;;;;;;31.53;15.43;;;;;;;4.44;100.00;100507.89;1845140;77;21755;-73
2021/03/27 07:08:04;;;;;;;18.13;9.77;;;;;;;4.49;100.00;100510.22;1791074;78;21214;-75
2021/03/27 07:10:54;;;;;;;8.03;5.27;;;;;;;4.55;100.00;100513.28;1790954;78;21606;-76
2021/03/27 07:13:33;;;;;;;17.17;6.90;;;;;;;4.61;100.00;100515.95;1827661;77;21062;-75
2021/03/27 07:16:16;;;;;;;11.60;5.07;;;;;;;4.66;100.00;100514.27;1841058;77;20985;-74
2021/03/27 07:19:21;;;;;;;19.73;9.28;;;;;;;4.73;100.00;100515.48;1824169;76;21361;-77
2021/03/27 07:22:16;;;;;;;11.63;5.20;;;;;;;4.78;100.00;100524.02;1740675;80;21013;-72
2021/03/27 07:25:23;;;;;;;9.23;5.20;;;;;;;4.84;100.00;100522.16;1743728;81;21036;-75
2021/03/27 07:28:08;;;;;;;5.63;3.60;;;;;;;4.90;100.00;100516.30;1748542;81;21053;-74
2021/03/27 07:30:58;;;;;;;5.97;4.27;;;;;;;5.02;100.00;100517.16;1799635;78;26709;-75
2021/03/27 07:33:55;;;;;;;19.10;9.28;;;;;;;5.04;100.00;100525.08;1735878;81;20995;-75
2021/03/27 07:37:13;;;;;;;9.07;4.90;;;;;;;5.09;100.00;100522.38;1740950;79;22290;-72
2021/03/27 07:40:49;;;;;;;12.87;6.93;;;;;;;5.23;100.00;100517.75;1842417;76;26808;-75
2021/03/27 07:44:06;;;;;;;23.73;12.53;;;;;;;5.28;100.00;100524.43;1799151;77;21061;-75
2021/03/27 07:47:03;;;;;;;11.33;6.13;;;;;;;5.38;100.00;100527.20;1798597;77;21598;-73
2021/03/27 07:50:17;;;;;;;12.27;6.83;;;;;;;5.44;100.00;100523.19;1796933;77;21071;-71
2021/03/27 07:53:30;;;;;;;13.20;5.87;;;;;;;5.50;100.00;100534.73;1791071;79;21055;-73
2021/03/27 07:56:29;;;;;;;9.10;4.93;;;;;;;5.53;100.00;100542.54;1807595;79;21569;-72
2021/03/27 07:59:32;;;;;;;15.93;6.90;;;;;;;5.58;100.00;100538.12;1793430;79;20984;-73
2021/03/27 08:02:32;;;;;;;9.37;4.87;;;;;;;5.65;100.00;100548.73;1791150;79;21813;-71
2021/03/27 08:05:06;;;;;;;11.73;5.53;;;;;;;5.71;100.00;100552.23;1797539;78;21023;-70
2021/03/27 08:07:43;;;;;;;17.50;7.83;;;;;;;5.84;100.00;100546.23;1817582;78;21011;-70
2021/03/27 08:10:46;;;;;;;8.13;5.23;;;;;;;6.00;100.00;100545.82;1817660;78;21853;-70
2021/03/27 08:13:58;;;;;;;7.80;4.03;;;;;;;6.15;100.00;100552.22;1814324;78;21039;-71
2021/03/27 08:16:39;;;;;;;5.07;3.17;;;;;;;6.30;100.00;100545.52;1805817;78;21203;-70
2021/03/27 08:19:19;;;;;;;7.47;4.33;;;;;;;6.51;100.00;100540.14;1816650;78;21068;-70
2021/03/27 08:22:05;;;;;;;5.30;4.07;;;;;;;6.70;100.00;100538.56;1808279;78;21033;-73
2021/03/27 08:24:48;;;;;;;6.53;4.27;;;;;;;6.83;100.00;100539.17;1786929;78;21170;-71
2021/03/27 08:27:35;;;;;;;7.80;4.47;;;;;;;6.92;100.00;100534.33;1790956;78;21201;-70
2021/03/27 08:30:41;;;;;;;5.80;3.50;;;;;;;7.06;100.00;100545.70;1799687;78;21903;-70
2021/03/27 08:33:26;;;;;;;9.20;4.57;;;;;;;7.17;100.00;100546.47;1821284;78;20999;-70
2021/03/27 08:36:22;;;;;;;10.93;5.80;;;;;;;7.17;100.00;100557.23;1814779;78;20933;-70
2021/03/27 08:39:43;;;;;;;6.87;4.30;;;;;;;7.10;100.00;100549.34;1814438;78;21146;-70
2021/03/27 08:43:04;;;;;;;13.50;6.03;;;;;;;7.04;100.00;100549.88;1793087;79;20976;-72
2021/03/27 08:45:53;;;;;;;7.37;4.47;;;;;;;7.04;100.00;100557.94;1788999;79;21192;-71
2021/03/27 08:48:50;;;;;;;9.63;5.20;;;;;;;7.09;100.00;100552.17;1809112;79;20976;-71
2021/03/27 08:51:29;;;;;;;9.57;4.70;;;;;;;7.08;100.00;100548.61;1812484;79;21557;-70
2021/03/27 08:54:41;;;;;;;5.30;3.50;;;;;;;7.17;100.00;100542.91;1814600;79;21087;-72
2021/03/27 08:57:48;;;;;;;16.00;5.87;;;;;;;7.29;100.00;100533.73;1801238;79;20984;-72
2021/03/27 09:00:28;;;;;;;8.23;4.47;;;;;;;7.45;100.00;100531.02;1811409;79;21048;-70
2021/03/27 09:03:25;;;;;;;5.73;3.47;;;;;;;7.60;100.00;100534.52;1742178;82;21616;-71
2021/03/27 09:06:22;;;;;;;7.47;4.10;;;;;;;7.79;100.00;100527.44;1738553;81;20981;-72
2021/03/27 09:09:13;;;;;;;7.07;3.97;;;;;;;7.99;100.00;100531.84;1736703;81;21013;-74
2021/03/27 09:12:16;;;;;;;9.30;4.57;;;;;;;8.21;100.00;100531.18;1747371;81;21025;-72
2021/03/27 09:15:25;;;;;;;7.00;4.30;;;;;;;8.40;100.00;100528.13;1693818;84;21422;-74
2021/03/27 09:18:43;;;;;;;10.10;4.17;;;;;;;8.67;100.00;100532.75;1694098;84;21206;-74
2021/03/27 09:21:58;;;;;;;8.67;5.37;;;;;;;8.93;100.00;100525.70;1692853;84;21621;-74
2021/03/27 09:24:34;;;;;;;9.37;4.03;;;;;;;9.32;100.00;100527.35;1685948;83;21177;-73
2021/03/27 09:27:28;;;;;;;7.10;4.37;;;;;;;9.80;100.00;100527.52;1686201;84;21280;-75
2021/03/27 09:30:22;;;;;;;6.05;3.10;;;;;;;10.11;100.00;100528.48;1691860;84;21387;-72
2021/03/27 09:33:07;;;;;;;5.10;3.67;;;;;;;10.25;100.00;100527.92;1693379;83;21250;-71
2021/03/27 09:36:19;;;;;;;6.10;3.27;;;;;;;10.38;100.00;100532.10;1693243;84;20992;-72
2021/03/27 09:39:04;;;;;;;6.17;3.83;;;;;;;10.34;100.00;100531.57;1691228;84;21973;-69
2021/03/27 09:42:18;;;;;;;5.90;4.47;;;;;;;10.38;100.00;100533.45;1850059;76;22731;-71
2021/03/27 09:45:35;;;;;;;8.30;5.13;;;;;;;10.33;100.00;100529.02;1828378;77;21025;-73
2021/03/27 09:48:41;;;;;;;6.47;3.80;;;;;;;10.28;100.00;100532.16;1784440;79;21358;-73
2021/03/27 09:51:33;;;;;;;4.67;3.07;;;;;;;10.41;100.00;100525.88;1822342;77;20898;-72
2021/03/27 09:54:25;;;;;;;6.87;3.30;;;;;;;10.45;100.00;100529.11;1826924;77;21063;-70
2021/03/27 09:57:03;;;;;;;3.95;3.37;;;;;;;10.52;100.00;100523.41;1822423;78;21021;-74
2021/03/27 09:59:46;;;;;;;5.90;3.47;;;;;;;10.60;100.00;100526.15;1819856;78;21021;-69
2021/03/27 10:02:29;;;;;;;5.40;3.20;;;;;;;10.73;100.00;100528.45;1822185;78;22191;-72
2021/03/27 10:05:37;;;;;;;9.20;4.43;;;;;;;10.80;100.00;100533.56;1765715;81;21461;-70
2021/03/27 10:08:26;;;;;;;4.23;3.60;;;;;;;10.79;100.00;100531.84;1764001;80;20961;-70
2021/03/27 10:11:07;;;;;;;5.27;3.70;;;;;;;10.86;100.00;100526.65;1752848;79;20976;-70
2021/03/27 10:13:58;;;;;;;2.93;2.70;;;;;;;10.85;100.00;100532.22;1780398;80;20997;-69
2021/03/27 10:16:59;;;;;;;6.22;3.40;;;;;;;10.81;100.00;100534.39;1784848;79;21176;-70
2021/03/27 10:19:57;;;;;;;3.77;3.10;;;;;;;10.87;100.00;100531.06;1757196;80;21020;-70
2021/03/27 10:22:37;;;;;;;6.40;3.80;;;;;;;10.89;100.00;100529.52;1769356;79;21553;-70
2021/03/27 10:25:30;;;;;;;7.97;3.95;;;;;;;10.92;100.00;100533.27;1843824;76;28422;-69
2021/03/27 10:28:27;;;;;;;6.57;4.33;;;;;;;10.98;100.00;100531.28;1842503;77;22674;-69
2021/03/27 10:31:06;;;;;;;4.75;3.45;;;;;;;10.89;100.00;100537.16;1824195;78;20874;-71
2021/03/27 10:33:53;;;;;;;3.33;3.00;;;;;;;10.72;100.00;100528.60;1761187;80;21021;-71
2021/03/27 10:36:42;;;;;;;2.83;2.50;;;;;;;10.72;100.00;100538.07;1793538;77;20988;-73
2021/03/27 10:39:39;;;;;;;5.30;2.95;;;;;;;10.77;100.00;100539.28;1826968;77;21016;-71
2021/03/27 10:42:30;;;;;;;3.98;3.12;;;;;;;10.66;100.00;100542.27;1847666;77;20993;-74
2021/03/27 10:45:24;;;;;;;3.08;2.25;;;;;;;10.60;100.00;100536.13;1844596;77;21032;-71
2021/03/27 10:48:11;;;;;;;3.50;2.85;;;;;;;10.66;100.00;100540.04;1852420;76;21942;-70
2021/03/27 10:51:06;;;;;;;3.93;2.43;;;;;;;10.72;100.00;100538.07;1837222;77;20993;-71
2021/03/27 10:53:57;;;;;;;2.53;2.33;;;;;;;10.79;100.00;100539.96;1829914;77;21455;-72
2021/03/27 10:56:50;;;;;;;4.60;2.47;;;;;;;10.79;100.00;100536.42;1741435;81;20930;-70
2021/03/27 10:59:47;;;;;;;3.37;2.60;;;;;;;10.86;100.00;100538.83;1841697;77;22749;-72
2021/03/27 11:02:58;;;;;;;4.33;2.57;;;;;;;10.93;100.00;100543.93;1834351;77;20938;-71
2021/03/27 11:05:40;;;;;;;4.07;2.67;;;;;;;11.05;100.00;100547.70;1772446;80;21819;-71
2021/03/27 11:08:40;;;;;;;4.58;2.65;;;;;;;11.04;100.00;100540.61;1732605;81;21648;-75
2021/03/27 11:11:56;;;;;;;4.10;2.30;;;;;;;10.88;100.00;100547.62;1731189;81;21035;-74
2021/03/27 11:14:39;;;;;;;6.42;2.95;;;;;;;10.84;100.00;100544.91;1722110;83;21036;-73
2021/03/27 11:17:58;;;;;;;3.80;2.13;;;;;;;11.17;100.00;100539.16;1842831;76;23863;-70
2021/03/27 11:20:57;;;;;;;4.78;2.42;;;;;;;11.46;100.00;100543.83;1792251;78;20912;-74
2021/03/27 11:23:58;;;;;;;3.50;2.58;;;;;;;11.83;100.00;100546.59;1716398;82;21313;-75
2021/03/27 11:26:55;;;;;;;4.47;2.52;;;;;;;12.01;100.00;100544.63;1671529;85;21285;-74
2021/03/27 11:29:41;;;;;;;4.30;2.25;;;;;;;12.05;100.00;100542.43;1686903;84;20973;-74
2021/03/27 11:32:31;;;;;;;2.90;2.37;;;;;;;12.13;100.00;100539.22;1664322;86;21604;-74
2021/03/27 11:35:36;;;;;;;4.67;2.65;;;;;;;12.38;100.00;100544.64;1695732;84;21037;-74
2021/03/27 11:38:29;;;;;;;4.12;3.10;;;;;;;12.53;100.00;100541.55;1674334;84;20988;-72
2021/03/27 11:41:10;;;;;;;2.50;2.22;;;;;;;12.42;100.00;100545.14;1697102;84;21688;-74
2021/03/27 11:44:13;;;;;;;2.00;1.80;;;;;;;12.53;100.00;100540.20;1697643;84;21072;-72
2021/03/27 11:47:20;;;;;;;2.83;2.00;;;;;;;13.02;100.00;100541.96;1820107;76;22933;-73
2021/03/27 11:50:33;;;;;;;1.70;1.50;;;;;;;13.17;100.00;100535.27;1718727;83;21068;-73
2021/03/27 11:53:37;;;;;;;3.43;2.67;;;;;;;13.26;100.00;100542.39;1839324;76;22703;-75
2021/03/27 11:56:27;;;;;;;3.80;1.92;;;;;;;13.26;100.00;100546.95;1780989;79;21474;-75
2021/03/27 12:02:56;;;;;;;2.05;1.72;;;;;;;13.30;100.00;100538.81;1703988;83;20979;-76
2021/03/27 12:05:37;;;;;;;2.92;1.98;;;;;;;13.34;100.00;100544.77;1714951;83;21593;-74
2021/03/27 12:08:26;;;;;;;4.13;2.17;;;;;;;13.07;100.00;100538.21;1796699;77;22736;-74
2021/03/27 12:11:05;;;;;;;2.90;1.75;;;;;;;12.75;100.00;100542.36;1733159;80;20982;-75
2021/03/27 12:13:54;;;;;;;2.33;1.87;;;;;;;12.64;100.00;100545.80;1693318;83;21069;-76
2021/03/27 12:16:53;;;;;;;3.30;1.80;;;;;;;12.77;100.00;100546.62;1687815;84;21500;-77
2021/03/27 12:19:49;;;;;;;1.85;1.20;;;;;;;12.84;100.00;100545.42;1654467;86;21065;-73
2021/03/27 12:22:25;;;;;;;1.95;1.35;;;;;;;12.97;100.00;100544.34;1664004;85;21644;-71
2021/03/27 12:25:14;;;;;;;2.00;1.55;;;;;;;13.11;99.71;100549.05;1673014;85;21639;-73
2021/03/27 12:28:13;;;;;;;3.50;1.75;;;;;;;13.19;98.33;100538.69;1669534;85;21031;-73
2021/03/27 12:31:22;;;;;;;1.72;1.40;;;;;;;13.34;97.88;100540.69;1672607;84;21726;-73
2021/03/27 12:34:05;;;;;;;3.65;1.82;;;;;;;13.49;97.62;100540.25;1692017;84;20978;-76
2021/03/27 12:37:13;;;;;;;1.40;1.30;;;;;;;13.66;91.90;100541.86;1661003;84;21221;-73
2021/03/27 12:40:02;;;;;;;2.67;2.10;;;;;;;13.66;89.67;100541.02;1670263;85;21169;-72
2021/03/27 12:42:38;;;;;;;1.98;1.82;;;;;;;13.58;92.92;100539.20;1682710;84;22181;-72
2021/03/27 12:45:13;;;;;;;4.20;1.82;;;;;;;13.70;92.33;100541.51;1650300;84;21097;-75
2021/03/27 12:48:14;;;;;;;2.20;1.43;;;;;;;13.73;91.76;100534.36;1904625;74;23301;-71
2021/03/27 12:51:06;;;;;;;3.08;1.77;;;;;;;13.74;95.31;100537.39;1784076;79;21060;-71
2021/03/27 12:54:20;;;;;;;1.60;1.47;;;;;;;13.98;90.54;100544.55;1777322;79;22375;-71
2021/03/27 12:57:42;;;;;;;1.92;1.07;;;;;;;14.10;85.92;100547.70;1798696;79;21001;-72
2021/03/27 13:00:58;;;;;;;1.50;1.40;;;;;;;14.11;85.19;100543.94;1748206;79;21023;-72
2021/03/27 13:04:04;;;;;;;1.17;0.98;;;;;;;14.19;82.94;100546.60;1752879;81;20997;-75
2021/03/27 13:06:50;;;;;;;2.85;1.30;;;;;;;14.08;80.20;100544.29;1772595;80;21001;-72
2021/03/27 13:09:37;;;;;;;3.35;1.95;;;;;;;14.12;80.96;100537.48;1689467;83;21623;-72
2021/03/27 13:12:31;;;;;;;0.50;0.50;;;;;;;14.22;84.10;100547.61;1731165;82;21590;-74
2021/03/27 13:15:48;;;;;;;1.37;1.03;;;;;;;14.28;79.00;100545.50;1860269;76;22453;-73
2021/03/27 13:19:08;;;;;;;2.75;1.90;;;;;;;14.11;79.31;100552.09;1854828;77;21595;-73
2021/03/27 13:21:57;;;;;;;0.95;0.93;;;;;;;13.88;79.55;100543.94;1850036;77;22355;-71
2021/03/27 13:24:58;;;;;;;1.12;1.12;;;;;;;13.55;82.28;100547.70;1830213;77;21049;-73
2021/03/27 13:27:40;;;;;;;1.40;1.30;;;;;;;13.34;84.48;100540.17;1841942;77;20947;-75